Time;durP1;ratioP1;P1;durP2;ratioP2;P2;SDS_P1;SDS_P2;PMS_P1;PMS_P2;Temp;Humidity;BMP_temperature;BMP_pressure;BME280_temperature;BME280_humidity;BME280_pressure;Samples;Min_cycle;Max_cycle;Signal;HPM_P1;HPM_P2
2022/06/01 00:00:12;;;;;;;1.95;1.75;;;;;;;12.27;72.66895;95149.46;;;;
2022/06/01 00:01:13;;;;;;;1.95;1.75;;;;;;;12.27;72.66895;95149.46;;;;
2022/06/01 00:02:15;;;;;;;1.95;1.75;;;;;;;12.27;72.66895;95149.46;;;;
2022/06/01 00:03:15;;;;;;;1.95;1.75;;;;;;;12.27;72.66895;95149.46;;;;
2022/06/01 00:04:16;;;;;;;1.95;1.75;;;;;;;12.27;72.66895;95149.46;;;;
2022/06/01 00:05:19;;;;;;;1.95;1.75;;;;;;;12.27;72.66895;95149.46;;;;
2022/06/01 00:06:20;;;;;;;1.95;1.75;;;;;;;12.27;72.66895;95149.46;;;;
2022/06/01 00:07:20;;;;;;;1.95;1.75;;;;;;;12.27;72.66895;95149.46;;;;
2022/06/01 00:08:21;;;;;;;2;1.9;;;;;;;12.35;73.21289;95151.25;;;;
2022/06/01 00:09:22;;;;;;;2;1.9;;;;;;;12.35;73.21289;95151.25;;;;
2022/06/01 00:10:23;;;;;;;2;1.9;;;;;;;12.35;73.21289;95151.25;;;;
2022/06/01 00:11:23;;;;;;;2;1.9;;;;;;;12.35;73.21289;95151.25;;;;
2022/06/01 00:12:23;;;;;;;2;1.9;;;;;;;12.35;73.21289;95151.25;;;;
2022/06/01 00:13:24;;;;;;;2;1.9;;;;;;;12.35;73.21289;95151.25;;;;
2022/06/01 00:14:25;;;;;;;2;1.9;;;;;;;12.35;73.21289;95151.25;;;;
2022/06/01 00:15:26;;;;;;;2;1.9;;;;;;;12.35;73.21289;95151.25;;;;
2022/06/01 00:16:27;;;;;;;2;1.9;;;;;;;12.35;73.21289;95151.25;;;;
2022/06/01 00:17:28;;;;;;;2;1.9;;;;;;;12.35;73.21289;95151.25;;;;
2022/06/01 00:18:28;;;;;;;2;1.9;;;;;;;12.35;73.21289;95151.25;;;;
2022/06/01 00:19:29;;;;;;;2;1.9;;;;;;;12.37;73.11816;95150.11;;;;
2022/06/01 00:20:29;;;;;;;2;1.9;;;;;;;12.37;73.11816;95150.11;;;;
2022/06/01 00:21:30;;;;;;;2;1.9;;;;;;;12.37;73.11816;95150.11;;;;
2022/06/01 00:22:31;;;;;;;2;1.9;;;;;;;12.37;73.11816;95150.11;;;;
2022/06/01 00:23:31;;;;;;;2;1.9;;;;;;;12.37;73.11816;95150.11;;;;
2022/06/01 00:24:32;;;;;;;2;1.9;;;;;;;12.37;73.11816;95150.11;;;;
2022/06/01 00:25:32;;;;;;;2;1.9;;;;;;;12.37;73.11816;95150.11;;;;
2022/06/01 00:26:33;;;;;;;2;1.9;;;;;;;12.37;73.11816;95150.11;;;;
2022/06/01 00:27:33;;;;;;;2;1.9;;;;;;;12.37;73.11816;95150.11;;;;
2022/06/01 00:28:34;;;;;;;2;1.9;;;;;;;12.37;73.11816;95150.11;;;;
2022/06/01 00:29:35;;;;;;;1.95;1.85;;;;;;;12.45;73.67285;95153.38;;;;
2022/06/01 00:30:36;;;;;;;1.95;1.85;;;;;;;12.45;73.67285;95153.38;;;;
2022/06/01 00:31:37;;;;;;;1.95;1.85;;;;;;;12.45;73.67285;95153.38;;;;
2022/06/01 00:32:37;;;;;;;1.95;1.85;;;;;;;12.45;73.67285;95153.38;;;;
2022/06/01 00:33:38;;;;;;;1.95;1.85;;;;;;;12.45;73.67285;95153.38;;;;
2022/06/01 00:34:39;;;;;;;1.95;1.85;;;;;;;12.45;73.67285;95153.38;;;;
2022/06/01 00:35:41;;;;;;;1.95;1.85;;;;;;;12.45;73.67285;95153.38;;;;
2022/06/01 00:36:41;;;;;;;1.95;1.85;;;;;;;12.45;73.67285;95153.38;;;;
2022/06/01 00:37:42;;;;;;;1.95;1.85;;;;;;;12.45;73.67285;95153.38;;;;
2022/06/01 00:38:43;;;;;;;1.95;1.85;;;;;;;12.45;73.67285;95153.38;;;;
2022/06/01 00:39:44;;;;;;;1.95;1.85;;;;;;;12.45;73.67285;95153.38;;;;
2022/06/01 00:40:45;;;;;;;2.55;1.9;;;;;;;12.44;73.37988;95160.92;;;;
2022/06/01 00:41:45;;;;;;;2.55;1.9;;;;;;;12.44;73.37988;95160.92;;;;
2022/06/01 00:42:46;;;;;;;2.55;1.9;;;;;;;12.44;73.37988;95160.92;;;;
2022/06/01 00:43:49;;;;;;;2.55;1.9;;;;;;;12.44;73.37988;95160.92;;;;
2022/06/01 00:44:49;;;;;;;2.55;1.9;;;;;;;12.44;73.37988;95160.92;;;;
2022/06/01 00:45:51;;;;;;;2.55;1.9;;;;;;;12.44;73.37988;95160.92;;;;
2022/06/01 00:46:52;;;;;;;2.55;1.9;;;;;;;12.44;73.37988;95160.92;;;;
2022/06/01 00:47:53;;;;;;;2.55;1.9;;;;;;;12.44;73.37988;95160.92;;;;
2022/06/01 00:48:54;;;;;;;2.55;1.9;;;;;;;12.44;73.37988;95160.92;;;;
2022/06/01 00:50:00;;;;;;;2.55;1.9;;;;;;;12.44;73.37988;95160.92;;;;
2022/06/01 00:51:06;;;;;;;2.25;2;;;;;;;12.53;73.59863;95164.07;;;;
2022/06/01 00:52:07;;;;;;;2.25;2;;;;;;;12.53;73.59863;95164.07;;;;
2022/06/01 00:53:09;;;;;;;2.25;2;;;;;;;12.53;73.59863;95164.07;;;;
2022/06/01 00:54:17;;;;;;;2.25;2;;;;;;;12.53;73.59863;95164.07;;;;
2022/06/01 00:55:17;;;;;;;2.25;2;;;;;;;12.53;73.59863;95164.07;;;;
2022/06/01 00:56:21;;;;;;;2.25;2;;;;;;;12.53;73.59863;95164.07;;;;
2022/06/01 00:57:26;;;;;;;2.25;2;;;;;;;12.53;73.59863;95164.07;;;;
2022/06/01 00:58:27;;;;;;;2.25;2;;;;;;;12.53;73.59863;95164.07;;;;
2022/06/01 00:59:33;;;;;;;2.25;2;;;;;;;12.53;73.59863;95164.07;;;;
2022/06/01 01:00:38;;;;;;;2.25;2;;;;;;;12.53;73.59863;95164.07;;;;
2022/06/01 01:01:41;;;;;;;2.1;1.8;;;;;;;12.53;73.5127;95157.82;;;;
2022/06/01 01:02:43;;;;;;;2.1;1.8;;;;;;;12.53;73.5127;95157.82;;;;
2022/06/01 01:03:45;;;;;;;2.1;1.8;;;;;;;12.53;73.5127;95157.82;;;;
2022/06/01 01:04:49;;;;;;;2.1;1.8;;;;;;;12.53;73.5127;95157.82;;;;
2022/06/01 01:05:49;;;;;;;2.1;1.8;;;;;;;12.53;73.5127;95157.82;;;;
2022/06/01 01:06:55;;;;;;;2.1;1.8;;;;;;;12.53;73.5127;95157.82;;;;
2022/06/01 01:07:56;;;;;;;2.1;1.8;;;;;;;12.53;73.5127;95157.82;;;;
2022/06/01 01:08:59;;;;;;;2.1;1.8;;;;;;;12.53;73.5127;95157.82;;;;
2022/06/01 01:10:00;;;;;;;2.1;1.8;;;;;;;12.53;73.5127;95157.82;;;;
2022/06/01 01:11:01;;;;;;;2.1;1.8;;;;;;;12.53;73.5127;95157.82;;;;
2022/06/01 01:12:05;;;;;;;2.2;2;;;;;;;12.58;73.63965;95156.76;;;;
2022/06/01 01:13:09;;;;;;;2.2;2;;;;;;;12.58;73.63965;95156.76;;;;
2022/06/01 01:14:13;;;;;;;2.2;2;;;;;;;12.58;73.63965;95156.76;;;;
2022/06/01 01:15:17;;;;;;;2.2;2;;;;;;;12.58;73.63965;95156.76;;;;
2022/06/01 01:16:20;;;;;;;2.2;2;;;;;;;12.58;73.63965;95156.76;;;;
2022/06/01 01:17:21;;;;;;;2.2;2;;;;;;;12.58;73.63965;95156.76;;;;
2022/06/01 01:18:21;;;;;;;2.2;2;;;;;;;12.58;73.63965;95156.76;;;;
2022/06/01 01:19:30;;;;;;;2.2;2;;;;;;;12.58;73.63965;95156.76;;;;
2022/06/01 01:20:35;;;;;;;2.2;2;;;;;;;12.58;73.63965;95156.76;;;;
2022/06/01 01:21:46;;;;;;;2.2;2;;;;;;;12.58;73.63965;95156.76;;;;
2022/06/01 01:22:56;;;;;;;2.3;2.1;;;;;;;12.52;73.62109;95156.22;;;;
2022/06/01 01:24:07;;;;;;;2.3;2.1;;;;;;;12.52;73.62109;95156.22;;;;
2022/06/01 01:25:15;;;;;;;2.3;2.1;;;;;;;12.52;73.62109;95156.22;;;;
2022/06/01 01:26:20;;;;;;;2.3;2.1;;;;;;;12.52;73.62109;95156.22;;;;
2022/06/01 01:27:23;;;;;;;2.3;2.1;;;;;;;12.52;73.62109;95156.22;;;;
2022/06/01 01:28:24;;;;;;;2.3;2.1;;;;;;;12.52;73.62109;95156.22;;;;
2022/06/01 01:29:24;;;;;;;2.3;2.1;;;;;;;12.52;73.62109;95156.22;;;;
2022/06/01 01:30:35;;;;;;;2.3;2.1;;;;;;;12.52;73.62109;95156.22;;;;
2022/06/01 01:31:47;;;;;;;2.3;2.1;;;;;;;12.52;73.62109;95156.22;;;;
2022/06/01 01:32:47;;;;;;;2.3;2.1;;;;;;;12.52;73.62109;95156.22;;;;
2022/06/01 01:33:48;;;;;;;2.5;2.2;;;;;;;12.47;73.67578;95158.73;;;;
2022/06/01 01:34:51;;;;;;;2.5;2.2;;;;;;;12.47;73.67578;95158.73;;;;
2022/06/01 01:35:51;;;;;;;2.5;2.2;;;;;;;12.47;73.67578;95158.73;;;;
2022/06/01 01:36:55;;;;;;;2.5;2.2;;;;;;;12.47;73.67578;95158.73;;;;
2022/06/01 01:37:59;;;;;;;2.5;2.2;;;;;;;12.47;73.67578;95158.73;;;;
2022/06/01 01:39:07;;;;;;;2.5;2.2;;;;;;;12.47;73.67578;95158.73;;;;
2022/06/01 01:40:10;;;;;;;2.5;2.2;;;;;;;12.47;73.67578;95158.73;;;;
2022/06/01 01:41:11;;;;;;;2.5;2.2;;;;;;;12.47;73.67578;95158.73;;;;
2022/06/01 01:42:17;;;;;;;2.5;2.2;;;;;;;12.47;73.67578;95158.73;;;;
2022/06/01 01:43:19;;;;;;;2.5;2.2;;;;;;;12.47;73.67578;95158.73;;;;
2022/06/01 01:44:20;;;;;;;2.2;2;;;;;;;12.32;73.80078;95162.84;;;;
2022/06/01 01:45:25;;;;;;;2.2;2;;;;;;;12.32;73.80078;95162.84;;;;
2022/06/01 01:46:28;;;;;;;2.2;2;;;;;;;12.32;73.80078;95162.84;;;;
2022/06/01 01:47:31;;;;;;;2.2;2;;;;;;;12.32;73.80078;95162.84;;;;
2022/06/01 01:48:35;;;;;;;2.2;2;;;;;;;12.32;73.80078;95162.84;;;;
2022/06/01 01:49:37;;;;;;;2.2;2;;;;;;;12.32;73.80078;95162.84;;;;
2022/06/01 01:50:40;;;;;;;2.2;2;;;;;;;12.32;73.80078;95162.84;;;;
2022/06/01 01:51:40;;;;;;;2.2;2;;;;;;;12.32;73.80078;95162.84;;;;
2022/06/01 01:52:41;;;;;;;2.2;2;;;;;;;12.32;73.80078;95162.84;;;;
2022/06/01 01:53:42;;;;;;;2.2;2;;;;;;;12.32;73.80078;95162.84;;;;
2022/06/01 01:54:42;;;;;;;2.6;2.2;;;;;;;12.2;73.94336;95169.84;;;;
2022/06/01 01:55:50;;;;;;;2.6;2.2;;;;;;;12.2;73.94336;95169.84;;;;
2022/06/01 01:57:01;;;;;;;2.6;2.2;;;;;;;12.2;73.94336;95169.84;;;;
2022/06/01 01:58:14;;;;;;;2.6;2.2;;;;;;;12.2;73.94336;95169.84;;;;
2022/06/01 01:59:25;;;;;;;2.6;2.2;;;;;;;12.2;73.94336;95169.84;;;;
2022/06/01 02:00:36;;;;;;;2.6;2.2;;;;;;;12.2;73.94336;95169.84;;;;
2022/06/01 02:01:41;;;;;;;2.6;2.2;;;;;;;12.2;73.94336;95169.84;;;;
2022/06/01 02:02:49;;;;;;;2.6;2.2;;;;;;;12.2;73.94336;95169.84;;;;
2022/06/01 02:03:58;;;;;;;2.6;2.2;;;;;;;12.2;73.94336;95169.84;;;;
2022/06/01 02:06:11;;;;;;;2.6;2.2;;;;;;;12.2;73.94336;95169.84;;;;
2022/06/01 02:07:19;;;;;;;2.6;2.4;;;;;;;12.05;74.1123;95165.94;;;;
2022/06/01 02:08:28;;;;;;;2.6;2.4;;;;;;;12.05;74.1123;95165.94;;;;
2022/06/01 02:12:41;;;;;;;2.6;2.4;;;;;;;12.05;74.1123;95165.94;;;;
2022/06/01 02:13:41;;;;;;;2.6;2.4;;;;;;;12.05;74.1123;95165.94;;;;
2022/06/01 02:14:42;;;;;;;2.6;2.4;;;;;;;12.05;74.1123;95165.94;;;;
2022/06/01 02:15:47;;;;;;;2.6;2.4;;;;;;;12.05;74.1123;95165.94;;;;
2022/06/01 02:16:50;;;;;;;2.5;2.25;;;;;;;11.96;74.47461;95169.95;;;;
2022/06/01 02:17:58;;;;;;;2.5;2.25;;;;;;;11.96;74.47461;95169.95;;;;
2022/06/01 02:19:03;;;;;;;2.5;2.25;;;;;;;11.96;74.47461;95169.95;;;;
2022/06/01 02:20:10;;;;;;;2.5;2.25;;;;;;;11.96;74.47461;95169.95;;;;
2022/06/01 02:21:16;;;;;;;2.5;2.25;;;;;;;11.96;74.47461;95169.95;;;;
2022/06/01 02:22:21;;;;;;;2.5;2.25;;;;;;;11.96;74.47461;95169.95;;;;
2022/06/01 02:23:21;;;;;;;2.5;2.25;;;;;;;11.96;74.47461;95169.95;;;;
2022/06/01 02:24:22;;;;;;;2.5;2.25;;;;;;;11.96;74.47461;95169.95;;;;
2022/06/01 02:25:24;;;;;;;2.5;2.25;;;;;;;11.96;74.47461;95169.95;;;;
2022/06/01 02:26:24;;;;;;;2.5;2.25;;;;;;;11.96;74.47461;95169.95;;;;
2022/06/01 02:27:25;;;;;;;2.5;2.3;;;;;;;11.84;74.62793;95168.56;;;;
2022/06/01 02:28:26;;;;;;;2.5;2.3;;;;;;;11.84;74.62793;95168.56;;;;
2022/06/01 02:29:27;;;;;;;2.5;2.3;;;;;;;11.84;74.62793;95168.56;;;;
2022/06/01 02:30:34;;;;;;;2.5;2.3;;;;;;;11.84;74.62793;95168.56;;;;
2022/06/01 02:31:37;;;;;;;2.5;2.3;;;;;;;11.84;74.62793;95168.56;;;;
2022/06/01 02:32:40;;;;;;;2.5;2.3;;;;;;;11.84;74.62793;95168.56;;;;
2022/06/01 02:33:43;;;;;;;2.5;2.3;;;;;;;11.84;74.62793;95168.56;;;;
2022/06/01 02:34:46;;;;;;;2.5;2.3;;;;;;;11.84;74.62793;95168.56;;;;
2022/06/01 02:35:49;;;;;;;2.5;2.3;;;;;;;11.84;74.62793;95168.56;;;;
2022/06/01 02:36:53;;;;;;;2.5;2.3;;;;;;;11.84;74.62793;95168.56;;;;
2022/06/01 02:37:56;;;;;;;2.75;2.55;;;;;;;11.8;74.8916;95167.78;;;;
2022/06/01 02:38:58;;;;;;;2.75;2.55;;;;;;;11.8;74.8916;95167.78;;;;
2022/06/01 02:39:59;;;;;;;2.75;2.55;;;;;;;11.8;74.8916;95167.78;;;;
2022/06/01 02:42:25;;;;;;;2.75;2.55;;;;;;;11.8;74.8916;95167.78;;;;
2022/06/01 02:43:26;;;;;;;2.75;2.55;;;;;;;11.8;74.8916;95167.78;;;;
2022/06/01 02:44:27;;;;;;;2.75;2.55;;;;;;;11.8;74.8916;95167.78;;;;
2022/06/01 02:45:27;;;;;;;2.75;2.55;;;;;;;11.8;74.8916;95167.78;;;;
2022/06/01 02:46:28;;;;;;;2.75;2.55;;;;;;;11.8;74.8916;95167.78;;;;
2022/06/01 02:47:30;;;;;;;2.75;2.55;;;;;;;11.8;74.8916;95167.78;;;;
2022/06/01 02:48:34;;;;;;;2.65;2.45;;;;;;;11.67;74.97656;95168.06;;;;
2022/06/01 02:49:36;;;;;;;2.65;2.45;;;;;;;11.67;74.97656;95168.06;;;;
2022/06/01 02:50:37;;;;;;;2.65;2.45;;;;;;;11.67;74.97656;95168.06;;;;
2022/06/01 02:51:37;;;;;;;2.65;2.45;;;;;;;11.67;74.97656;95168.06;;;;
2022/06/01 02:52:38;;;;;;;2.65;2.45;;;;;;;11.67;74.97656;95168.06;;;;
2022/06/01 02:53:40;;;;;;;2.65;2.45;;;;;;;11.67;74.97656;95168.06;;;;
2022/06/01 02:54:40;;;;;;;2.65;2.45;;;;;;;11.67;74.97656;95168.06;;;;
2022/06/01 02:55:41;;;;;;;2.65;2.45;;;;;;;11.67;74.97656;95168.06;;;;
2022/06/01 02:56:42;;;;;;;2.65;2.45;;;;;;;11.67;74.97656;95168.06;;;;
2022/06/01 02:57:42;;;;;;;2.65;2.45;;;;;;;11.67;74.97656;95168.06;;;;
2022/06/01 02:58:44;;;;;;;3;2.6;;;;;;;11.61;75.20508;95163.5;;;;
2022/06/01 02:59:44;;;;;;;3;2.6;;;;;;;11.61;75.20508;95163.5;;;;
2022/06/01 03:00:46;;;;;;;3;2.6;;;;;;;11.61;75.20508;95163.5;;;;
2022/06/01 03:01:47;;;;;;;3;2.6;;;;;;;11.61;75.20508;95163.5;;;;
2022/06/01 03:02:48;;;;;;;3;2.6;;;;;;;11.61;75.20508;95163.5;;;;
2022/06/01 03:03:51;;;;;;;3;2.6;;;;;;;11.61;75.20508;95163.5;;;;
2022/06/01 03:04:52;;;;;;;3;2.6;;;;;;;11.61;75.20508;95163.5;;;;
2022/06/01 03:05:52;;;;;;;3;2.6;;;;;;;11.61;75.20508;95163.5;;;;
2022/06/01 03:06:53;;;;;;;3;2.6;;;;;;;11.61;75.20508;95163.5;;;;
2022/06/01 03:07:53;;;;;;;3;2.6;;;;;;;11.61;75.20508;95163.5;;;;
2022/06/01 03:08:55;;;;;;;3;2.6;;;;;;;11.61;75.20508;95163.5;;;;
2022/06/01 03:09:55;;;;;;;2.55;2.35;;;;;;;11.48;75.2793;95183.49;;;;
2022/06/01 03:10:55;;;;;;;2.55;2.35;;;;;;;11.48;75.2793;95183.49;;;;
2022/06/01 03:11:56;;;;;;;2.55;2.35;;;;;;;11.48;75.2793;95183.49;;;;
2022/06/01 03:12:57;;;;;;;2.55;2.35;;;;;;;11.48;75.2793;95183.49;;;;
2022/06/01 03:13:58;;;;;;;2.55;2.35;;;;;;;11.48;75.2793;95183.49;;;;
2022/06/01 03:14:58;;;;;;;2.55;2.35;;;;;;;11.48;75.2793;95183.49;;;;
2022/06/01 03:15:59;;;;;;;2.55;2.35;;;;;;;11.48;75.2793;95183.49;;;;
2022/06/01 03:17:00;;;;;;;2.55;2.35;;;;;;;11.48;75.2793;95183.49;;;;
2022/06/01 03:18:00;;;;;;;2.55;2.35;;;;;;;11.48;75.2793;95183.49;;;;
2022/06/01 03:19:01;;;;;;;2.55;2.35;;;;;;;11.48;75.2793;95183.49;;;;
2022/06/01 03:20:01;;;;;;;2.55;2.35;;;;;;;11.48;75.2793;95183.49;;;;
2022/06/01 03:21:03;;;;;;;2.75;2.55;;;;;;;11.44;75.38965;95174.49;;;;
2022/06/01 03:22:04;;;;;;;2.75;2.55;;;;;;;11.44;75.38965;95174.49;;;;
2022/06/01 03:23:04;;;;;;;2.75;2.55;;;;;;;11.44;75.38965;95174.49;;;;
2022/06/01 03:24:05;;;;;;;2.75;2.55;;;;;;;11.44;75.38965;95174.49;;;;
2022/06/01 03:25:07;;;;;;;2.75;2.55;;;;;;;11.44;75.38965;95174.49;;;;
2022/06/01 03:26:12;;;;;;;2.75;2.55;;;;;;;11.44;75.38965;95174.49;;;;
2022/06/01 03:27:13;;;;;;;2.75;2.55;;;;;;;11.44;75.38965;95174.49;;;;
2022/06/01 03:28:13;;;;;;;2.75;2.55;;;;;;;11.44;75.38965;95174.49;;;;
2022/06/01 03:29:14;;;;;;;2.75;2.55;;;;;;;11.44;75.38965;95174.49;;;;
2022/06/01 03:30:15;;;;;;;2.75;2.55;;;;;;;11.44;75.38965;95174.49;;;;
2022/06/01 03:31:18;;;;;;;4.099999;2.85;;;;;;;11.39;75.55273;95179.63;;;;
2022/06/01 03:32:18;;;;;;;4.099999;2.85;;;;;;;11.39;75.55273;95179.63;;;;
2022/06/01 03:33:19;;;;;;;4.099999;2.85;;;;;;;11.39;75.55273;95179.63;;;;
2022/06/01 03:34:19;;;;;;;4.099999;2.85;;;;;;;11.39;75.55273;95179.63;;;;
2022/06/01 03:35:20;;;;;;;4.099999;2.85;;;;;;;11.39;75.55273;95179.63;;;;
2022/06/01 03:36:23;;;;;;;4.099999;2.85;;;;;;;11.39;75.55273;95179.63;;;;
2022/06/01 03:37:23;;;;;;;4.099999;2.85;;;;;;;11.39;75.55273;95179.63;;;;
2022/06/01 03:38:24;;;;;;;4.099999;2.85;;;;;;;11.39;75.55273;95179.63;;;;
2022/06/01 03:39:25;;;;;;;4.099999;2.85;;;;;;;11.39;75.55273;95179.63;;;;
2022/06/01 03:40:25;;;;;;;4.099999;2.85;;;;;;;11.39;75.55273;95179.63;;;;
2022/06/01 03:41:29;;;;;;;3.2;2.9;;;;;;;11.51;75.60547;95195.87;;;;
2022/06/01 03:42:30;;;;;;;3.2;2.9;;;;;;;11.51;75.60547;95195.87;;;;
2022/06/01 03:45:55;;;;;;;3.2;2.9;;;;;;;11.51;75.60547;95195.87;;;;
2022/06/01 03:46:55;;;;;;;3.2;2.9;;;;;;;11.51;75.60547;95195.87;;;;
2022/06/01 03:48:00;;;;;;;3.2;2.9;;;;;;;11.51;75.60547;95195.87;;;;
2022/06/01 03:49:01;;;;;;;3.2;2.9;;;;;;;11.51;75.60547;95195.87;;;;
2022/06/01 03:50:01;;;;;;;3.2;2.9;;;;;;;11.51;75.60547;95195.87;;;;
2022/06/01 03:51:04;;;;;;;3.2;2.9;;;;;;;11.51;75.60547;95195.87;;;;
2022/06/01 03:52:05;;;;;;;3.2;2.9;;;;;;;11.51;75.60547;95195.87;;;;
2022/06/01 03:53:07;;;;;;;3.2;2.9;;;;;;;11.51;75.60547;95195.87;;;;
2022/06/01 03:54:07;;;;;;;3.2;2.9;;;;;;;11.51;75.60547;95195.87;;;;
2022/06/01 03:55:08;;;;;;;3.2;2.9;;;;;;;11.51;75.60547;95195.87;;;;
2022/06/01 03:56:08;;;;;;;3.2;2.9;;;;;;;11.51;75.60547;95195.87;;;;
2022/06/01 03:57:12;;;;;;;3.2;2.9;;;;;;;11.51;75.60547;95195.87;;;;
2022/06/01 03:58:13;;;;;;;3.2;2.9;;;;;;;11.51;75.60547;95195.87;;;;
2022/06/01 03:59:15;;;;;;;3.2;2.9;;;;;;;11.51;75.60547;95195.87;;;;
2022/06/01 04:00:15;;;;;;;3.2;2.9;;;;;;;11.51;75.60547;95195.87;;;;
2022/06/01 04:01:25;;;;;;;3.2;2.9;;;;;;;11.51;75.60547;95195.87;;;;
2022/06/01 04:02:26;;;;;;;3.2;2.9;;;;;;;11.51;75.60547;95195.87;;;;
2022/06/01 04:03:27;;;;;;;3.3;3.1;;;;;;;11.41;75.80469;95193.86;;;;
2022/06/01 04:04:27;;;;;;;3.3;3.1;;;;;;;11.41;75.80469;95193.86;;;;
2022/06/01 04:05:28;;;;;;;3.3;3.1;;;;;;;11.41;75.80469;95193.86;;;;
2022/06/01 04:06:30;;;;;;;3.3;3.1;;;;;;;11.41;75.80469;95193.86;;;;
2022/06/01 04:07:31;;;;;;;3.3;3.1;;;;;;;11.41;75.80469;95193.86;;;;
2022/06/01 04:08:32;;;;;;;3.3;3.1;;;;;;;11.41;75.80469;95193.86;;;;
2022/06/01 04:09:32;;;;;;;3.3;3.1;;;;;;;11.41;75.80469;95193.86;;;;
2022/06/01 04:10:33;;;;;;;3.3;3.1;;;;;;;11.41;75.80469;95193.86;;;;
2022/06/01 04:11:35;;;;;;;3.3;3.1;;;;;;;11.41;75.80469;95193.86;;;;
2022/06/01 04:12:36;;;;;;;3.3;3.1;;;;;;;11.41;75.80469;95193.86;;;;
2022/06/01 04:13:37;;;;;;;3.55;3.25;;;;;;;11.32;75.99512;95202.18;;;;
2022/06/01 04:14:37;;;;;;;3.55;3.25;;;;;;;11.32;75.99512;95202.18;;;;
2022/06/01 04:15:38;;;;;;;3.55;3.25;;;;;;;11.32;75.99512;95202.18;;;;
2022/06/01 04:16:38;;;;;;;3.55;3.25;;;;;;;11.32;75.99512;95202.18;;;;
2022/06/01 04:17:39;;;;;;;3.55;3.25;;;;;;;11.32;75.99512;95202.18;;;;
2022/06/01 04:18:39;;;;;;;3.55;3.25;;;;;;;11.32;75.99512;95202.18;;;;
2022/06/01 04:19:40;;;;;;;3.55;3.25;;;;;;;11.32;75.99512;95202.18;;;;
2022/06/01 04:20:40;;;;;;;3.55;3.25;;;;;;;11.32;75.99512;95202.18;;;;
2022/06/01 04:21:41;;;;;;;3.55;3.25;;;;;;;11.32;75.99512;95202.18;;;;
2022/06/01 04:22:45;;;;;;;3.55;3.25;;;;;;;11.32;75.99512;95202.18;;;;
2022/06/01 04:23:47;;;;;;;3.55;3.25;;;;;;;11.32;75.99512;95202.18;;;;
2022/06/01 04:24:49;;;;;;;4.7;3.25;;;;;;;11.39;76.17871;95227.67;;;;
2022/06/01 04:25:50;;;;;;;4.7;3.25;;;;;;;11.39;76.17871;95227.67;;;;
2022/06/01 04:26:50;;;;;;;4.7;3.25;;;;;;;11.39;76.17871;95227.67;;;;
2022/06/01 04:27:51;;;;;;;4.7;3.25;;;;;;;11.39;76.17871;95227.67;;;;
2022/06/01 04:28:52;;;;;;;4.7;3.25;;;;;;;11.39;76.17871;95227.67;;;;
2022/06/01 04:29:52;;;;;;;4.7;3.25;;;;;;;11.39;76.17871;95227.67;;;;
2022/06/01 04:30:53;;;;;;;4.7;3.25;;;;;;;11.39;76.17871;95227.67;;;;
2022/06/01 04:31:53;;;;;;;4.7;3.25;;;;;;;11.39;76.17871;95227.67;;;;
2022/06/01 04:33:01;;;;;;;4.7;3.25;;;;;;;11.39;76.17871;95227.67;;;;
2022/06/01 04:34:03;;;;;;;4.7;3.25;;;;;;;11.39;76.17871;95227.67;;;;
2022/06/01 04:35:03;;;;;;;3.85;3.55;;;;;;;11.51;76.24316;95216.14;;;;
2022/06/01 04:36:06;;;;;;;3.85;3.55;;;;;;;11.51;76.24316;95216.14;;;;
2022/06/01 04:37:07;;;;;;;3.85;3.55;;;;;;;11.51;76.24316;95216.14;;;;
2022/06/01 04:38:15;;;;;;;3.85;3.55;;;;;;;11.51;76.24316;95216.14;;;;
2022/06/01 04:39:15;;;;;;;3.85;3.55;;;;;;;11.51;76.24316;95216.14;;;;
2022/06/01 04:40:15;;;;;;;3.85;3.55;;;;;;;11.51;76.24316;95216.14;;;;
2022/06/01 04:41:18;;;;;;;3.85;3.55;;;;;;;11.51;76.24316;95216.14;;;;
2022/06/01 04:42:19;;;;;;;3.85;3.55;;;;;;;11.51;76.24316;95216.14;;;;
2022/06/01 04:43:19;;;;;;;3.85;3.55;;;;;;;11.51;76.24316;95216.14;;;;
2022/06/01 04:44:21;;;;;;;3.85;3.55;;;;;;;11.51;76.24316;95216.14;;;;
2022/06/01 04:45:22;;;;;;;3.85;3.55;;;;;;;11.51;76.24316;95216.14;;;;
2022/06/01 04:46:23;;;;;;;4;3.4;;;;;;;11.84;76.27734;95226.42;;;;
2022/06/01 04:47:23;;;;;;;4;3.4;;;;;;;11.84;76.27734;95226.42;;;;
2022/06/01 04:48:24;;;;;;;4;3.4;;;;;;;11.84;76.27734;95226.42;;;;
2022/06/01 04:49:25;;;;;;;4;3.4;;;;;;;11.84;76.27734;95226.42;;;;
2022/06/01 04:50:25;;;;;;;4;3.4;;;;;;;11.84;76.27734;95226.42;;;;
2022/06/01 04:51:26;;;;;;;4;3.4;;;;;;;11.84;76.27734;95226.42;;;;
2022/06/01 04:52:26;;;;;;;4;3.4;;;;;;;11.84;76.27734;95226.42;;;;
2022/06/01 04:53:27;;;;;;;4;3.4;;;;;;;11.84;76.27734;95226.42;;;;
2022/06/01 04:54:28;;;;;;;4;3.4;;;;;;;11.84;76.27734;95226.42;;;;
2022/06/01 04:55:29;;;;;;;4;3.4;;;;;;;11.84;76.27734;95226.42;;;;
2022/06/01 04:56:29;;;;;;;3.2;3;;;;;;;12.3;76.09766;95211.29;;;;
2022/06/01 04:57:30;;;;;;;3.2;3;;;;;;;12.3;76.09766;95211.29;;;;
2022/06/01 04:58:30;;;;;;;3.2;3;;;;;;;12.3;76.09766;95211.29;;;;
2022/06/01 04:59:31;;;;;;;3.2;3;;;;;;;12.3;76.09766;95211.29;;;;
2022/06/01 05:00:33;;;;;;;3.2;3;;;;;;;12.3;76.09766;95211.29;;;;
2022/06/01 05:01:34;;;;;;;3.2;3;;;;;;;12.3;76.09766;95211.29;;;;
2022/06/01 05:02:34;;;;;;;3.2;3;;;;;;;12.3;76.09766;95211.29;;;;
2022/06/01 05:03:35;;;;;;;3.2;3;;;;;;;12.3;76.09766;95211.29;;;;
2022/06/01 05:04:35;;;;;;;3.2;3;;;;;;;12.3;76.09766;95211.29;;;;
2022/06/01 05:05:37;;;;;;;3.2;3;;;;;;;12.3;76.09766;95211.29;;;;
2022/06/01 05:06:38;;;;;;;3.2;3;;;;;;;12.3;76.09766;95211.29;;;;
2022/06/01 05:07:38;;;;;;;2.95;2.65;;;;;;;12.99;75.77441;95219.87;;;;
2022/06/01 05:08:39;;;;;;;2.95;2.65;;;;;;;12.99;75.77441;95219.87;;;;
2022/06/01 05:09:40;;;;;;;2.95;2.65;;;;;;;12.99;75.77441;95219.87;;;;
2022/06/01 05:10:41;;;;;;;2.95;2.65;;;;;;;12.99;75.77441;95219.87;;;;
2022/06/01 05:11:41;;;;;;;2.95;2.65;;;;;;;12.99;75.77441;95219.87;;;;
2022/06/01 05:12:42;;;;;;;2.95;2.65;;;;;;;12.99;75.77441;95219.87;;;;
2022/06/01 05:13:43;;;;;;;2.95;2.65;;;;;;;12.99;75.77441;95219.87;;;;
2022/06/01 05:14:43;;;;;;;2.95;2.65;;;;;;;12.99;75.77441;95219.87;;;;
2022/06/01 05:15:44;;;;;;;2.95;2.65;;;;;;;12.99;75.77441;95219.87;;;;
2022/06/01 05:16:49;;;;;;;2.95;2.65;;;;;;;12.99;75.77441;95219.87;;;;
2022/06/01 05:17:49;;;;;;;2.95;2.65;;;;;;;12.99;75.77441;95219.87;;;;
2022/06/01 05:18:50;;;;;;;2.95;2.65;;;;;;;12.99;75.77441;95219.87;;;;
2022/06/01 05:19:51;;;;;;;2.95;2.65;;;;;;;12.99;75.77441;95219.87;;;;
2022/06/01 05:20:53;;;;;;;2.95;2.65;;;;;;;12.99;75.77441;95219.87;;;;
2022/06/01 05:21:53;;;;;;;2.95;2.65;;;;;;;12.99;75.77441;95219.87;;;;
2022/06/01 05:22:54;;;;;;;2.95;2.65;;;;;;;12.99;75.77441;95219.87;;;;
2022/06/01 05:23:54;;;;;;;2.95;2.65;;;;;;;12.99;75.77441;95219.87;;;;
2022/06/01 05:24:55;;;;;;;2.95;2.65;;;;;;;12.99;75.77441;95219.87;;;;
2022/06/01 05:25:55;;;;;;;2.95;2.65;;;;;;;12.99;75.77441;95219.87;;;;
2022/06/01 05:26:56;;;;;;;2.95;2.65;;;;;;;12.99;75.77441;95219.87;;;;
2022/06/01 05:27:57;;;;;;;2.95;2.65;;;;;;;12.99;75.77441;95219.87;;;;
2022/06/01 05:28:57;;;;;;;7;3;;;;;;;14.67;74.37012;95214.26;;;;
2022/06/01 05:29:58;;;;;;;7;3;;;;;;;14.67;74.37012;95214.26;;;;
2022/06/01 05:30:58;;;;;;;7;3;;;;;;;14.67;74.37012;95214.26;;;;
2022/06/01 05:32:01;;;;;;;7;3;;;;;;;14.67;74.37012;95214.26;;;;
2022/06/01 05:33:03;;;;;;;7;3;;;;;;;14.67;74.37012;95214.26;;;;
2022/06/01 05:34:04;;;;;;;7;3;;;;;;;14.67;74.37012;95214.26;;;;
2022/06/01 05:35:04;;;;;;;7;3;;;;;;;14.67;74.37012;95214.26;;;;
2022/06/01 05:36:06;;;;;;;7;3;;;;;;;14.67;74.37012;95214.26;;;;
2022/06/01 05:37:07;;;;;;;7;3;;;;;;;14.67;74.37012;95214.26;;;;
2022/06/01 05:38:08;;;;;;;7;3;;;;;;;14.67;74.37012;95214.26;;;;
2022/06/01 05:39:08;;;;;;;3;2.6;;;;;;;15.17;73.87891;95217.42;;;;
2022/06/01 05:40:09;;;;;;;3;2.6;;;;;;;15.17;73.87891;95217.42;;;;
2022/06/01 05:41:09;;;;;;;3;2.6;;;;;;;15.17;73.87891;95217.42;;;;
2022/06/01 05:42:11;;;;;;;3;2.6;;;;;;;15.17;73.87891;95217.42;;;;
2022/06/01 05:43:12;;;;;;;3;2.6;;;;;;;15.17;73.87891;95217.42;;;;
2022/06/01 05:44:16;;;;;;;3;2.6;;;;;;;15.17;73.87891;95217.42;;;;
2022/06/01 05:45:17;;;;;;;3;2.6;;;;;;;15.17;73.87891;95217.42;;;;
2022/06/01 05:46:18;;;;;;;3;2.6;;;;;;;15.17;73.87891;95217.42;;;;
2022/06/01 05:47:18;;;;;;;3;2.6;;;;;;;15.17;73.87891;95217.42;;;;
2022/06/01 05:48:19;;;;;;;3;2.6;;;;;;;15.17;73.87891;95217.42;;;;
2022/06/01 05:49:21;;;;;;;3;2.6;;;;;;;15.17;73.87891;95217.42;;;;
2022/06/01 05:50:21;;;;;;;5.1;2.9;;;;;;;15.59;73.44727;95216.09;;;;
2022/06/01 05:51:23;;;;;;;5.1;2.9;;;;;;;15.59;73.44727;95216.09;;;;
2022/06/01 05:52:23;;;;;;;5.1;2.9;;;;;;;15.59;73.44727;95216.09;;;;
2022/06/01 05:53:24;;;;;;;5.1;2.9;;;;;;;15.59;73.44727;95216.09;;;;
2022/06/01 05:54:24;;;;;;;5.1;2.9;;;;;;;15.59;73.44727;95216.09;;;;
2022/06/01 05:55:25;;;;;;;5.1;2.9;;;;;;;15.59;73.44727;95216.09;;;;
2022/06/01 05:56:25;;;;;;;5.1;2.9;;;;;;;15.59;73.44727;95216.09;;;;
2022/06/01 05:57:26;;;;;;;5.1;2.9;;;;;;;15.59;73.44727;95216.09;;;;
2022/06/01 05:58:26;;;;;;;5.1;2.9;;;;;;;15.59;73.44727;95216.09;;;;
2022/06/01 05:59:28;;;;;;;5.1;2.9;;;;;;;15.59;73.44727;95216.09;;;;
2022/06/01 06:00:29;;;;;;;3;2.7;;;;;;;15.93;73.01465;95220.72;;;;
2022/06/01 06:01:29;;;;;;;3;2.7;;;;;;;15.93;73.01465;95220.72;;;;
2022/06/01 06:02:30;;;;;;;3;2.7;;;;;;;15.93;73.01465;95220.72;;;;
2022/06/01 06:03:31;;;;;;;3;2.7;;;;;;;15.93;73.01465;95220.72;;;;
2022/06/01 06:04:33;;;;;;;3;2.7;;;;;;;15.93;73.01465;95220.72;;;;
2022/06/01 06:06:38;;;;;;;3;2.7;;;;;;;15.93;73.01465;95220.72;;;;
2022/06/01 06:07:39;;;;;;;3;2.7;;;;;;;15.93;73.01465;95220.72;;;;
2022/06/01 06:08:39;;;;;;;3;2.7;;;;;;;15.93;73.01465;95220.72;;;;
2022/06/01 06:09:43;;;;;;;3;2.7;;;;;;;15.93;73.01465;95220.72;;;;